Park Heights, Pennsylvania
Current Conditions -  °F | °C
As of 10:53 AM on Thursday 27 Nov 2014 (Local Time) from KTHV Reporting Station
Overcast Overcast  
Wind Chill: 32°   Ceiling: 6000
Heat Index: 36°   Visibility: 10mi
Dew Point: 30°   Wind: 5mph
Humidity: 79%   Direction: 290°WNW
Pressure: 30.04"   Gusts: NA
Location:  39.7863°N, 76.988°W
Report Text: KTHV 271553Z AUTO 29004KT 10SM FEW034 SCT045 OVC060 02/M01 A3004 RMK AO2 SLP180 T00221011
Loading
Personal Weather Stations






























Interactive Weather Map New forecast layout! Learn more

10-Day Weather Forecast

Advertisements
Track Severe Weather on mobile